sensor_id;sensor_type;location;lat;lon;timestamp;P1;durP1;ratioP1;P2;durP2;ratioP2
70205;SDS011;57593;55.896;37.396;2022-07-23T00:00:50;4.93;;;4.30;;
70205;SDS011;57593;55.896;37.396;2022-07-23T00:03:16;5.38;;;4.60;;
70205;SDS011;57593;55.896;37.396;2022-07-23T00:05:42;6.03;;;4.38;;
70205;SDS011;57593;55.896;37.396;2022-07-23T00:08:08;7.30;;;4.53;;
70205;SDS011;57593;55.896;37.396;2022-07-23T00:10:34;5.57;;;4.88;;
70205;SDS011;57593;55.896;37.396;2022-07-23T00:13:00;8.27;;;5.10;;
70205;SDS011;57593;55.896;37.396;2022-07-23T00:15:26;5.18;;;4.57;;
70205;SDS011;57593;55.896;37.396;2022-07-23T00:17:52;7.43;;;4.78;;
70205;SDS011;57593;55.896;37.396;2022-07-23T00:20:18;7.38;;;5.40;;
70205;SDS011;57593;55.896;37.396;2022-07-23T00:22:50;5.63;;;4.65;;
70205;SDS011;57593;55.896;37.396;2022-07-23T00:25:17;5.50;;;4.80;;
70205;SDS011;57593;55.896;37.396;2022-07-23T00:27:44;6.07;;;4.60;;
70205;SDS011;57593;55.896;37.396;2022-07-23T00:30:09;6.43;;;5.00;;
70205;SDS011;57593;55.896;37.396;2022-07-23T00:32:46;6.13;;;5.10;;
70205;SDS011;57593;55.896;37.396;2022-07-23T00:35:12;6.45;;;4.90;;
70205;SDS011;57593;55.896;37.396;2022-07-23T00:37:37;6.22;;;4.88;;
70205;SDS011;57593;55.896;37.396;2022-07-23T00:40:03;8.43;;;5.15;;
70205;SDS011;57593;55.896;37.396;2022-07-23T00:42:30;7.40;;;4.55;;
70205;SDS011;57593;55.896;37.396;2022-07-23T00:44:57;4.97;;;4.25;;
70205;SDS011;57593;55.896;37.396;2022-07-23T00:47:22;5.50;;;4.28;;
70205;SDS011;57593;55.896;37.396;2022-07-23T00:49:48;4.88;;;4.35;;
70205;SDS011;57593;55.896;37.396;2022-07-23T00:52:14;4.75;;;4.32;;
70205;SDS011;57593;55.896;37.396;2022-07-23T00:54:41;5.97;;;4.55;;
70205;SDS011;57593;55.896;37.396;2022-07-23T00:57:07;7.68;;;4.95;;
70205;SDS011;57593;55.896;37.396;2022-07-23T00:59:33;6.57;;;4.55;;
70205;SDS011;57593;55.896;37.396;2022-07-23T01:01:59;9.48;;;4.20;;
70205;SDS011;57593;55.896;37.396;2022-07-23T01:04:25;5.15;;;4.65;;
70205;SDS011;57593;55.896;37.396;2022-07-23T01:06:50;8.43;;;4.75;;
70205;SDS011;57593;55.896;37.396;2022-07-23T01:09:16;4.82;;;4.35;;
70205;SDS011;57593;55.896;37.396;2022-07-23T01:11:42;6.13;;;4.68;;
70205;SDS011;57593;55.896;37.396;2022-07-23T01:14:10;11.20;;;5.20;;
70205;SDS011;57593;55.896;37.396;2022-07-23T01:16:37;5.72;;;5.13;;
70205;SDS011;57593;55.896;37.396;2022-07-23T01:19:02;6.80;;;5.78;;
70205;SDS011;57593;55.896;37.396;2022-07-23T01:21:45;6.38;;;5.57;;
70205;SDS011;57593;55.896;37.396;2022-07-23T01:24:13;6.40;;;4.82;;
70205;SDS011;57593;55.896;37.396;2022-07-23T01:26:48;6.50;;;5.18;;
70205;SDS011;57593;55.896;37.396;2022-07-23T01:29:16;6.03;;;4.80;;
70205;SDS011;57593;55.896;37.396;2022-07-23T01:31:43;5.30;;;4.80;;
70205;SDS011;57593;55.896;37.396;2022-07-23T01:34:09;7.97;;;5.40;;
70205;SDS011;57593;55.896;37.396;2022-07-23T01:36:35;6.80;;;5.43;;
70205;SDS011;57593;55.896;37.396;2022-07-23T01:39:03;5.45;;;4.90;;
70205;SDS011;57593;55.896;37.396;2022-07-23T01:41:30;8.65;;;5.43;;
70205;SDS011;57593;55.896;37.396;2022-07-23T01:43:55;6.97;;;5.07;;
70205;SDS011;57593;55.896;37.396;2022-07-23T01:46:22;7.40;;;5.13;;
70205;SDS011;57593;55.896;37.396;2022-07-23T01:48:49;8.55;;;6.03;;
70205;SDS011;57593;55.896;37.396;2022-07-23T01:51:29;8.75;;;5.35;;
70205;SDS011;57593;55.896;37.396;2022-07-23T01:54:12;6.07;;;4.95;;
70205;SDS011;57593;55.896;37.396;2022-07-23T01:56:38;7.60;;;5.40;;
70205;SDS011;57593;55.896;37.396;2022-07-23T01:59:06;9.82;;;5.72;;
70205;SDS011;57593;55.896;37.396;2022-07-23T02:01:32;7.82;;;5.10;;
70205;SDS011;57593;55.896;37.396;2022-07-23T02:03:58;6.30;;;5.18;;
70205;SDS011;57593;55.896;37.396;2022-07-23T02:06:24;6.65;;;5.78;;
70205;SDS011;57593;55.896;37.396;2022-07-23T02:08:50;7.68;;;5.40;;
70205;SDS011;57593;55.896;37.396;2022-07-23T02:11:16;7.97;;;5.13;;
70205;SDS011;57593;55.896;37.396;2022-07-23T02:13:42;9.05;;;5.88;;
70205;SDS011;57593;55.896;37.396;2022-07-23T02:16:07;7.50;;;5.93;;
70205;SDS011;57593;55.896;37.396;2022-07-23T02:18:33;6.10;;;5.03;;
70205;SDS011;57593;55.896;37.396;2022-07-23T02:20:59;9.88;;;5.05;;
70205;SDS011;57593;55.896;37.396;2022-07-23T02:23:26;8.10;;;5.20;;
70205;SDS011;57593;55.896;37.396;2022-07-23T02:25:53;8.85;;;5.57;;
70205;SDS011;57593;55.896;37.396;2022-07-23T02:28:18;6.85;;;5.68;;
70205;SDS011;57593;55.896;37.396;2022-07-23T02:30:44;9.20;;;5.38;;
70205;SDS011;57593;55.896;37.396;2022-07-23T02:33:10;7.88;;;5.00;;
70205;SDS011;57593;55.896;37.396;2022-07-23T02:35:37;6.60;;;5.90;;
70205;SDS011;57593;55.896;37.396;2022-07-23T02:38:03;8.52;;;5.40;;
70205;SDS011;57593;55.896;37.396;2022-07-23T02:40:30;7.50;;;5.97;;
70205;SDS011;57593;55.896;37.396;2022-07-23T02:42:56;9.63;;;5.57;;
70205;SDS011;57593;55.896;37.396;2022-07-23T02:45:22;6.15;;;4.95;;
70205;SDS011;57593;55.896;37.396;2022-07-23T02:47:49;8.63;;;5.53;;
70205;SDS011;57593;55.896;37.396;2022-07-23T02:50:15;9.73;;;5.72;;
70205;SDS011;57593;55.896;37.396;2022-07-23T02:52:42;8.00;;;6.07;;
70205;SDS011;57593;55.896;37.396;2022-07-23T02:55:08;7.82;;;6.05;;
70205;SDS011;57593;55.896;37.396;2022-07-23T02:57:34;9.23;;;5.70;;
70205;SDS011;57593;55.896;37.396;2022-07-23T02:59:59;7.85;;;5.95;;
70205;SDS011;57593;55.896;37.396;2022-07-23T03:02:25;6.75;;;5.18;;
70205;SDS011;57593;55.896;37.396;2022-07-23T03:04:51;9.07;;;5.45;;
70205;SDS011;57593;55.896;37.396;2022-07-23T03:07:17;5.90;;;5.30;;
70205;SDS011;57593;55.896;37.396;2022-07-23T03:09:43;8.95;;;5.65;;
70205;SDS011;57593;55.896;37.396;2022-07-23T03:12:09;6.95;;;5.18;;
70205;SDS011;57593;55.896;37.396;2022-07-23T03:14:35;5.70;;;5.10;;
70205;SDS011;57593;55.896;37.396;2022-07-23T03:17:01;8.57;;;5.72;;
70205;SDS011;57593;55.896;37.396;2022-07-23T03:19:27;7.85;;;5.57;;
70205;SDS011;57593;55.896;37.396;2022-07-23T03:21:52;8.90;;;5.63;;
70205;SDS011;57593;55.896;37.396;2022-07-23T03:24:18;7.15;;;5.63;;
70205;SDS011;57593;55.896;37.396;2022-07-23T03:26:44;7.50;;;5.50;;
70205;SDS011;57593;55.896;37.396;2022-07-23T03:29:11;6.25;;;5.45;;
70205;SDS011;57593;55.896;37.396;2022-07-23T03:31:37;7.63;;;5.72;;
70205;SDS011;57593;55.896;37.396;2022-07-23T03:34:02;7.82;;;4.90;;
70205;SDS011;57593;55.896;37.396;2022-07-23T03:36:29;5.88;;;5.22;;
70205;SDS011;57593;55.896;37.396;2022-07-23T03:38:55;7.20;;;5.25;;
70205;SDS011;57593;55.896;37.396;2022-07-23T03:41:21;7.47;;;5.90;;
70205;SDS011;57593;55.896;37.396;2022-07-23T03:43:46;7.55;;;4.90;;
70205;SDS011;57593;55.896;37.396;2022-07-23T03:46:12;6.40;;;5.38;;
70205;SDS011;57593;55.896;37.396;2022-07-23T03:48:38;6.60;;;5.65;;
70205;SDS011;57593;55.896;37.396;2022-07-23T03:51:04;7.20;;;5.72;;
70205;SDS011;57593;55.896;37.396;2022-07-23T03:53:30;8.00;;;5.70;;
70205;SDS011;57593;55.896;37.396;2022-07-23T03:55:56;9.63;;;5.75;;
70205;SDS011;57593;55.896;37.396;2022-07-23T03:58:22;11.65;;;5.68;;
70205;SDS011;57593;55.896;37.396;2022-07-23T04:00:48;11.95;;;6.53;;
70205;SDS011;57593;55.896;37.396;2022-07-23T04:03:14;6.78;;;5.53;;
70205;SDS011;57593;55.896;37.396;2022-07-23T04:05:41;8.20;;;6.00;;
70205;SDS011;57593;55.896;37.396;2022-07-23T04:08:11;8.30;;;5.85;;
70205;SDS011;57593;55.896;37.396;2022-07-23T04:10:40;8.52;;;5.72;;
70205;SDS011;57593;55.896;37.396;2022-07-23T04:13:07;9.23;;;6.35;;
70205;SDS011;57593;55.896;37.396;2022-07-23T04:15:33;12.02;;;6.07;;
70205;SDS011;57593;55.896;37.396;2022-07-23T04:17:59;7.93;;;5.60;;
70205;SDS011;57593;55.896;37.396;2022-07-23T04:20:33;9.75;;;5.65;;
70205;SDS011;57593;55.896;37.396;2022-07-23T04:23:01;7.97;;;5.72;;
70205;SDS011;57593;55.896;37.396;2022-07-23T04:25:27;8.40;;;5.95;;
70205;SDS011;57593;55.896;37.396;2022-07-23T04:27:53;8.02;;;5.65;;
70205;SDS011;57593;55.896;37.396;2022-07-23T04:30:19;8.25;;;5.95;;
70205;SDS011;57593;55.896;37.396;2022-07-23T04:32:45;9.20;;;6.00;;
70205;SDS011;57593;55.896;37.396;2022-07-23T04:35:21;9.05;;;6.40;;
70205;SDS011;57593;55.896;37.396;2022-07-23T04:37:49;7.68;;;6.80;;
70205;SDS011;57593;55.896;37.396;2022-07-23T04:40:17;9.45;;;6.50;;
70205;SDS011;57593;55.896;37.396;2022-07-23T04:42:43;10.52;;;6.38;;
70205;SDS011;57593;55.896;37.396;2022-07-23T04:45:09;8.27;;;6.63;;
70205;SDS011;57593;55.896;37.396;2022-07-23T04:47:35;6.97;;;6.28;;
70205;SDS011;57593;55.896;37.396;2022-07-23T04:50:00;9.20;;;7.20;;
70205;SDS011;57593;55.896;37.396;2022-07-23T04:52:28;8.43;;;6.70;;
70205;SDS011;57593;55.896;37.396;2022-07-23T04:54:54;11.40;;;7.07;;
70205;SDS011;57593;55.896;37.396;2022-07-23T04:57:21;7.70;;;6.45;;
70205;SDS011;57593;55.896;37.396;2022-07-23T04:59:47;8.25;;;6.70;;
70205;SDS011;57593;55.896;37.396;2022-07-23T05:02:14;11.73;;;7.15;;
70205;SDS011;57593;55.896;37.396;2022-07-23T05:04:40;10.95;;;8.25;;
70205;SDS011;57593;55.896;37.396;2022-07-23T05:07:06;8.10;;;6.03;;
70205;SDS011;57593;55.896;37.396;2022-07-23T05:09:32;8.35;;;6.70;;
70205;SDS011;57593;55.896;37.396;2022-07-23T05:11:58;9.02;;;6.93;;
70205;SDS011;57593;55.896;37.396;2022-07-23T05:14:24;8.60;;;7.70;;
70205;SDS011;57593;55.896;37.396;2022-07-23T05:16:51;11.63;;;7.30;;
70205;SDS011;57593;55.896;37.396;2022-07-23T05:19:21;8.20;;;6.80;;
70205;SDS011;57593;55.896;37.396;2022-07-23T05:21:47;17.48;;;7.38;;
70205;SDS011;57593;55.896;37.396;2022-07-23T05:24:13;9.13;;;7.18;;
70205;SDS011;57593;55.896;37.396;2022-07-23T05:26:39;8.50;;;6.95;;
70205;SDS011;57593;55.896;37.396;2022-07-23T05:29:05;8.82;;;6.68;;
70205;SDS011;57593;55.896;37.396;2022-07-23T05:31:31;10.55;;;7.15;;
70205;SDS011;57593;55.896;37.396;2022-07-23T05:33:58;8.50;;;6.53;;
70205;SDS011;57593;55.896;37.396;2022-07-23T05:36:24;9.80;;;7.32;;
70205;SDS011;57593;55.896;37.396;2022-07-23T05:38:53;10.93;;;7.10;;
70205;SDS011;57593;55.896;37.396;2022-07-23T05:41:20;10.05;;;7.22;;
70205;SDS011;57593;55.896;37.396;2022-07-23T05:43:46;11.15;;;7.13;;
70205;SDS011;57593;55.896;37.396;2022-07-23T05:46:13;9.55;;;6.53;;
70205;SDS011;57593;55.896;37.396;2022-07-23T05:48:41;11.38;;;6.95;;
70205;SDS011;57593;55.896;37.396;2022-07-23T05:51:45;9.95;;;7.00;;
70205;SDS011;57593;55.896;37.396;2022-07-23T05:54:11;9.07;;;6.47;;
70205;SDS011;57593;55.896;37.396;2022-07-23T05:56:38;7.57;;;6.65;;
70205;SDS011;57593;55.896;37.396;2022-07-23T05:59:04;11.90;;;7.07;;
70205;SDS011;57593;55.896;37.396;2022-07-23T06:01:30;7.57;;;6.78;;
70205;SDS011;57593;55.896;37.396;2022-07-23T06:04:08;7.40;;;6.47;;
70205;SDS011;57593;55.896;37.396;2022-07-23T06:06:37;9.55;;;6.30;;
70205;SDS011;57593;55.896;37.396;2022-07-23T06:09:03;8.95;;;6.60;;
70205;SDS011;57593;55.896;37.396;2022-07-23T06:11:29;7.97;;;6.43;;
70205;SDS011;57593;55.896;37.396;2022-07-23T06:13:55;9.45;;;6.80;;
70205;SDS011;57593;55.896;37.396;2022-07-23T06:16:28;9.10;;;6.53;;
70205;SDS011;57593;55.896;37.396;2022-07-23T06:18:54;8.10;;;6.30;;
70205;SDS011;57593;55.896;37.396;2022-07-23T06:21:20;7.50;;;6.68;;
70205;SDS011;57593;55.896;37.396;2022-07-23T06:23:46;8.32;;;6.43;;
70205;SDS011;57593;55.896;37.396;2022-07-23T06:26:11;9.18;;;6.43;;
70205;SDS011;57593;55.896;37.396;2022-07-23T06:28:37;6.82;;;6.07;;
70205;SDS011;57593;55.896;37.396;2022-07-23T06:31:04;7.35;;;6.60;;
70205;SDS011;57593;55.896;37.396;2022-07-23T06:33:30;7.57;;;6.50;;
70205;SDS011;57593;55.896;37.396;2022-07-23T06:35:56;7.32;;;6.38;;
70205;SDS011;57593;55.896;37.396;2022-07-23T06:38:21;9.98;;;6.63;;
70205;SDS011;57593;55.896;37.396;2022-07-23T06:40:47;10.70;;;7.00;;
70205;SDS011;57593;55.896;37.396;2022-07-23T06:43:13;7.65;;;6.35;;
70205;SDS011;57593;55.896;37.396;2022-07-23T06:45:38;8.75;;;7.05;;
70205;SDS011;57593;55.896;37.396;2022-07-23T06:48:04;8.80;;;6.47;;
70205;SDS011;57593;55.896;37.396;2022-07-23T06:50:30;8.00;;;6.53;;
70205;SDS011;57593;55.896;37.396;2022-07-23T06:52:56;8.13;;;6.60;;
70205;SDS011;57593;55.896;37.396;2022-07-23T06:55:21;9.73;;;6.80;;
70205;SDS011;57593;55.896;37.396;2022-07-23T06:57:47;8.63;;;6.70;;
70205;SDS011;57593;55.896;37.396;2022-07-23T07:00:13;6.93;;;5.60;;
70205;SDS011;57593;55.896;37.396;2022-07-23T07:02:41;8.55;;;6.68;;
70205;SDS011;57593;55.896;37.396;2022-07-23T07:05:06;8.32;;;6.90;;
70205;SDS011;57593;55.896;37.396;2022-07-23T07:07:33;8.15;;;6.55;;
70205;SDS011;57593;55.896;37.396;2022-07-23T07:09:59;9.32;;;7.20;;
70205;SDS011;57593;55.896;37.396;2022-07-23T07:12:25;7.72;;;6.93;;
70205;SDS011;57593;55.896;37.396;2022-07-23T07:14:50;8.43;;;6.65;;
70205;SDS011;57593;55.896;37.396;2022-07-23T07:17:16;11.23;;;7.35;;
70205;SDS011;57593;55.896;37.396;2022-07-23T07:19:42;9.82;;;7.20;;
70205;SDS011;57593;55.896;37.396;2022-07-23T07:22:07;7.82;;;7.03;;
70205;SDS011;57593;55.896;37.396;2022-07-23T07:24:33;8.40;;;6.88;;
70205;SDS011;57593;55.896;37.396;2022-07-23T07:26:59;9.70;;;6.88;;
70205;SDS011;57593;55.896;37.396;2022-07-23T07:29:25;7.88;;;7.07;;
70205;SDS011;57593;55.896;37.396;2022-07-23T07:31:50;10.25;;;7.18;;
70205;SDS011;57593;55.896;37.396;2022-07-23T07:34:16;8.40;;;7.28;;
70205;SDS011;57593;55.896;37.396;2022-07-23T07:36:42;9.07;;;7.30;;
70205;SDS011;57593;55.896;37.396;2022-07-23T07:39:08;8.60;;;7.53;;
70205;SDS011;57593;55.896;37.396;2022-07-23T07:41:35;10.40;;;7.45;;
70205;SDS011;57593;55.896;37.396;2022-07-23T07:44:01;7.93;;;6.93;;
70205;SDS011;57593;55.896;37.396;2022-07-23T07:46:27;7.75;;;6.95;;
70205;SDS011;57593;55.896;37.396;2022-07-23T07:48:53;8.48;;;6.70;;
70205;SDS011;57593;55.896;37.396;2022-07-23T07:51:19;9.63;;;7.32;;
70205;SDS011;57593;55.896;37.396;2022-07-23T07:53:45;10.75;;;7.00;;
70205;SDS011;57593;55.896;37.396;2022-07-23T07:56:11;9.88;;;5.82;;
70205;SDS011;57593;55.896;37.396;2022-07-23T07:58:36;8.43;;;6.75;;
70205;SDS011;57593;55.896;37.396;2022-07-23T08:01:02;7.93;;;7.13;;
70205;SDS011;57593;55.896;37.396;2022-07-23T08:03:28;7.30;;;6.55;;
70205;SDS011;57593;55.896;37.396;2022-07-23T08:05:54;8.88;;;6.95;;
70205;SDS011;57593;55.896;37.396;2022-07-23T08:08:20;10.25;;;6.82;;
70205;SDS011;57593;55.896;37.396;2022-07-23T08:10:46;7.82;;;6.80;;
70205;SDS011;57593;55.896;37.396;2022-07-23T08:13:13;8.85;;;6.50;;
70205;SDS011;57593;55.896;37.396;2022-07-23T08:15:42;9.68;;;6.80;;
70205;SDS011;57593;55.896;37.396;2022-07-23T08:18:09;7.45;;;6.53;;
70205;SDS011;57593;55.896;37.396;2022-07-23T08:20:34;9.90;;;7.18;;
70205;SDS011;57593;55.896;37.396;2022-07-23T08:23:04;8.38;;;6.68;;
70205;SDS011;57593;55.896;37.396;2022-07-23T08:25:33;7.78;;;6.97;;
70205;SDS011;57593;55.896;37.396;2022-07-23T08:28:02;9.73;;;7.03;;
70205;SDS011;57593;55.896;37.396;2022-07-23T08:30:30;8.60;;;6.50;;
70205;SDS011;57593;55.896;37.396;2022-07-23T08:37:58;9.07;;;6.43;;
70205;SDS011;57593;55.896;37.396;2022-07-23T08:40:28;8.13;;;7.18;;
70205;SDS011;57593;55.896;37.396;2022-07-23T08:42:56;9.30;;;6.63;;
70205;SDS011;57593;55.896;37.396;2022-07-23T08:45:23;8.80;;;7.72;;
70205;SDS011;57593;55.896;37.396;2022-07-23T08:47:50;8.43;;;6.93;;
70205;SDS011;57593;55.896;37.396;2022-07-23T08:50:18;8.20;;;6.60;;
70205;SDS011;57593;55.896;37.396;2022-07-23T08:52:44;9.13;;;6.28;;
70205;SDS011;57593;55.896;37.396;2022-07-23T08:55:10;8.98;;;6.30;;
70205;SDS011;57593;55.896;37.396;2022-07-23T08:57:36;8.38;;;6.10;;
70205;SDS011;57593;55.896;37.396;2022-07-23T09:00:03;9.25;;;6.25;;
70205;SDS011;57593;55.896;37.396;2022-07-23T09:02:30;6.70;;;6.10;;
70205;SDS011;57593;55.896;37.396;2022-07-23T09:04:56;8.68;;;6.97;;
70205;SDS011;57593;55.896;37.396;2022-07-23T09:07:21;8.07;;;6.93;;
70205;SDS011;57593;55.896;37.396;2022-07-23T09:09:48;8.13;;;7.32;;
70205;SDS011;57593;55.896;37.396;2022-07-23T09:12:34;8.27;;;6.22;;
70205;SDS011;57593;55.896;37.396;2022-07-23T09:15:06;8.75;;;6.47;;
70205;SDS011;57593;55.896;37.396;2022-07-23T09:17:40;7.03;;;6.32;;
70205;SDS011;57593;55.896;37.396;2022-07-23T09:20:11;8.60;;;6.95;;
70205;SDS011;57593;55.896;37.396;2022-07-23T09:22:40;8.88;;;6.75;;
70205;SDS011;57593;55.896;37.396;2022-07-23T09:25:12;7.25;;;6.40;;
70205;SDS011;57593;55.896;37.396;2022-07-23T09:30:23;7.90;;;6.53;;
70205;SDS011;57593;55.896;37.396;2022-07-23T09:33:11;9.98;;;7.10;;
70205;SDS011;57593;55.896;37.396;2022-07-23T09:35:46;8.13;;;6.90;;
70205;SDS011;57593;55.896;37.396;2022-07-23T09:38:14;9.82;;;7.25;;
70205;SDS011;57593;55.896;37.396;2022-07-23T09:40:40;7.97;;;7.07;;
70205;SDS011;57593;55.896;37.396;2022-07-23T09:43:07;9.07;;;6.93;;
70205;SDS011;57593;55.896;37.396;2022-07-23T09:45:33;8.32;;;6.07;;
70205;SDS011;57593;55.896;37.396;2022-07-23T09:48:13;7.88;;;6.47;;
70205;SDS011;57593;55.896;37.396;2022-07-23T09:50:40;8.32;;;6.93;;
70205;SDS011;57593;55.896;37.396;2022-07-23T09:53:07;9.25;;;6.97;;
70205;SDS011;57593;55.896;37.396;2022-07-23T09:55:34;8.32;;;6.43;;
70205;SDS011;57593;55.896;37.396;2022-07-23T09:58:07;12.13;;;7.07;;
70205;SDS011;57593;55.896;37.396;2022-07-23T10:00:38;7.25;;;6.32;;
70205;SDS011;57593;55.896;37.396;2022-07-23T10:03:05;7.93;;;7.13;;
70205;SDS011;57593;55.896;37.396;2022-07-23T10:06:01;7.55;;;6.68;;
70205;SDS011;57593;55.896;37.396;2022-07-23T10:08:27;8.65;;;6.78;;
70205;SDS011;57593;55.896;37.396;2022-07-23T10:11:09;7.22;;;6.43;;
70205;SDS011;57593;55.896;37.396;2022-07-23T10:13:53;7.75;;;6.95;;
70205;SDS011;57593;55.896;37.396;2022-07-23T10:16:34;9.18;;;6.63;;
70205;SDS011;57593;55.896;37.396;2022-07-23T10:19:00;7.65;;;6.85;;
70205;SDS011;57593;55.896;37.396;2022-07-23T10:21:34;9.18;;;6.85;;
70205;SDS011;57593;55.896;37.396;2022-07-23T10:24:27;8.35;;;6.47;;
70205;SDS011;57593;55.896;37.396;2022-07-23T10:30:11;7.25;;;6.50;;
70205;SDS011;57593;55.896;37.396;2022-07-23T10:38:25;8.10;;;6.78;;
70205;SDS011;57593;55.896;37.396;2022-07-23T10:40:57;8.40;;;7.03;;
70205;SDS011;57593;55.896;37.396;2022-07-23T10:43:24;8.45;;;7.40;;
70205;SDS011;57593;55.896;37.396;2022-07-23T10:45:51;7.60;;;6.68;;
70205;SDS011;57593;55.896;37.396;2022-07-23T10:48:21;10.60;;;7.00;;
70205;SDS011;57593;55.896;37.396;2022-07-23T10:59:12;8.45;;;7.32;;
70205;SDS011;57593;55.896;37.396;2022-07-23T11:01:38;9.48;;;6.90;;
70205;SDS011;57593;55.896;37.396;2022-07-23T11:04:05;8.00;;;7.18;;
70205;SDS011;57593;55.896;37.396;2022-07-23T11:09:26;9.60;;;7.45;;
70205;SDS011;57593;55.896;37.396;2022-07-23T11:17:36;8.60;;;6.97;;
70205;SDS011;57593;55.896;37.396;2022-07-23T11:22:34;9.60;;;7.38;;
70205;SDS011;57593;55.896;37.396;2022-07-23T11:25:04;8.35;;;6.82;;
70205;SDS011;57593;55.896;37.396;2022-07-23T11:27:40;7.35;;;6.53;;
70205;SDS011;57593;55.896;37.396;2022-07-23T11:30:11;8.15;;;6.65;;
70205;SDS011;57593;55.896;37.396;2022-07-23T11:35:34;9.25;;;7.32;;
70205;SDS011;57593;55.896;37.396;2022-07-23T11:38:22;8.82;;;6.25;;
70205;SDS011;57593;55.896;37.396;2022-07-23T11:40:54;7.38;;;6.38;;
70205;SDS011;57593;55.896;37.396;2022-07-23T11:43:23;7.63;;;6.82;;
70205;SDS011;57593;55.896;37.396;2022-07-23T11:45:51;9.80;;;6.95;;
70205;SDS011;57593;55.896;37.396;2022-07-23T11:48:22;9.02;;;7.57;;
70205;SDS011;57593;55.896;37.396;2022-07-23T11:50:50;8.38;;;7.20;;
70205;SDS011;57593;55.896;37.396;2022-07-23T11:53:31;7.63;;;6.93;;
70205;SDS011;57593;55.896;37.396;2022-07-23T11:56:04;9.90;;;7.03;;
70205;SDS011;57593;55.896;37.396;2022-07-23T11:58:30;8.32;;;7.50;;
70205;SDS011;57593;55.896;37.396;2022-07-23T12:00:56;9.57;;;7.20;;
70205;SDS011;57593;55.896;37.396;2022-07-23T12:03:22;8.88;;;7.05;;
70205;SDS011;57593;55.896;37.396;2022-07-23T12:05:48;8.45;;;6.68;;
70205;SDS011;57593;55.896;37.396;2022-07-23T12:08:14;9.15;;;6.82;;
70205;SDS011;57593;55.896;37.396;2022-07-23T12:10:42;10.98;;;7.43;;
70205;SDS011;57593;55.896;37.396;2022-07-23T12:13:16;7.55;;;6.72;;
70205;SDS011;57593;55.896;37.396;2022-07-23T12:15:45;8.38;;;7.00;;
70205;SDS011;57593;55.896;37.396;2022-07-23T12:18:15;9.10;;;6.68;;
70205;SDS011;57593;55.896;37.396;2022-07-23T12:20:43;7.53;;;6.82;;
70205;SDS011;57593;55.896;37.396;2022-07-23T12:23:12;7.53;;;6.82;;
70205;SDS011;57593;55.896;37.396;2022-07-23T12:25:40;7.57;;;6.88;;
70205;SDS011;57593;55.896;37.396;2022-07-23T12:33:12;6.78;;;6.18;;
70205;SDS011;57593;55.896;37.396;2022-07-23T12:35:42;10.85;;;6.95;;
70205;SDS011;57593;55.896;37.396;2022-07-23T12:38:14;7.47;;;6.70;;
70205;SDS011;57593;55.896;37.396;2022-07-23T12:40:45;7.78;;;6.22;;
70205;SDS011;57593;55.896;37.396;2022-07-23T12:43:18;7.32;;;6.57;;
70205;SDS011;57593;55.896;37.396;2022-07-23T12:45:50;6.68;;;6.13;;
70205;SDS011;57593;55.896;37.396;2022-07-23T12:48:23;8.15;;;7.35;;
70205;SDS011;57593;55.896;37.396;2022-07-23T12:50:59;8.02;;;7.22;;
70205;SDS011;57593;55.896;37.396;2022-07-23T12:53:26;7.50;;;6.80;;
70205;SDS011;57593;55.896;37.396;2022-07-23T12:55:59;7.50;;;6.80;;
70205;SDS011;57593;55.896;37.396;2022-07-23T12:58:38;6.88;;;6.25;;
70205;SDS011;57593;55.896;37.396;2022-07-23T13:01:06;6.68;;;5.85;;
70205;SDS011;57593;55.896;37.396;2022-07-23T13:06:03;7.47;;;5.88;;
70205;SDS011;57593;55.896;37.396;2022-07-23T13:08:31;7.93;;;6.25;;
70205;SDS011;57593;55.896;37.396;2022-07-23T13:10:58;7.63;;;6.78;;
70205;SDS011;57593;55.896;37.396;2022-07-23T13:13:26;7.50;;;6.57;;
70205;SDS011;57593;55.896;37.396;2022-07-23T13:15:54;7.05;;;6.32;;
70205;SDS011;57593;55.896;37.396;2022-07-23T13:18:22;6.68;;;6.00;;
70205;SDS011;57593;55.896;37.396;2022-07-23T13:20:48;8.65;;;6.32;;
70205;SDS011;57593;55.896;37.396;2022-07-23T13:23:14;6.80;;;5.90;;
70205;SDS011;57593;55.896;37.396;2022-07-23T13:25:41;7.72;;;6.47;;
70205;SDS011;57593;55.896;37.396;2022-07-23T13:28:07;7.47;;;6.80;;
70205;SDS011;57593;55.896;37.396;2022-07-23T13:30:33;7.60;;;6.75;;
70205;SDS011;57593;55.896;37.396;2022-07-23T13:33:01;7.20;;;6.18;;
70205;SDS011;57593;55.896;37.396;2022-07-23T13:35:29;8.75;;;6.10;;
70205;SDS011;57593;55.896;37.396;2022-07-23T13:37:55;7.18;;;6.05;;
70205;SDS011;57593;55.896;37.396;2022-07-23T13:40:21;8.35;;;7.10;;
70205;SDS011;57593;55.896;37.396;2022-07-23T13:42:47;6.90;;;6.20;;
70205;SDS011;57593;55.896;37.396;2022-07-23T13:45:13;6.55;;;6.05;;
70205;SDS011;57593;55.896;37.396;2022-07-23T13:47:39;9.70;;;6.10;;
70205;SDS011;57593;55.896;37.396;2022-07-23T13:50:05;6.50;;;6.00;;
70205;SDS011;57593;55.896;37.396;2022-07-23T13:52:32;7.60;;;6.90;;
70205;SDS011;57593;55.896;37.396;2022-07-23T13:55:08;6.78;;;6.15;;
70205;SDS011;57593;55.896;37.396;2022-07-23T13:57:34;7.28;;;6.60;;
70205;SDS011;57593;55.896;37.396;2022-07-23T14:00:00;8.32;;;6.72;;
70205;SDS011;57593;55.896;37.396;2022-07-23T14:02:26;6.95;;;6.40;;
70205;SDS011;57593;55.896;37.396;2022-07-23T14:04:52;8.13;;;7.20;;
70205;SDS011;57593;55.896;37.396;2022-07-23T14:07:18;6.65;;;6.05;;
70205;SDS011;57593;55.896;37.396;2022-07-23T14:09:44;8.75;;;5.82;;
70205;SDS011;57593;55.896;37.396;2022-07-23T14:12:10;6.45;;;5.43;;
70205;SDS011;57593;55.896;37.396;2022-07-23T14:14:36;6.90;;;5.95;;
70205;SDS011;57593;55.896;37.396;2022-07-23T14:17:02;6.20;;;5.60;;
70205;SDS011;57593;55.896;37.396;2022-07-23T14:19:28;6.93;;;6.15;;
70205;SDS011;57593;55.896;37.396;2022-07-23T14:21:54;7.47;;;6.60;;
70205;SDS011;57593;55.896;37.396;2022-07-23T14:24:19;7.65;;;7.05;;
70205;SDS011;57593;55.896;37.396;2022-07-23T14:26:45;8.57;;;7.88;;
70205;SDS011;57593;55.896;37.396;2022-07-23T14:29:11;8.55;;;7.78;;
70205;SDS011;57593;55.896;37.396;2022-07-23T14:31:37;8.57;;;7.97;;
70205;SDS011;57593;55.896;37.396;2022-07-23T14:34:03;8.50;;;7.80;;
70205;SDS011;57593;55.896;37.396;2022-07-23T14:36:28;7.78;;;7.18;;
70205;SDS011;57593;55.896;37.396;2022-07-23T14:38:54;8.15;;;7.35;;
70205;SDS011;57593;55.896;37.396;2022-07-23T14:41:20;7.60;;;7.00;;
70205;SDS011;57593;55.896;37.396;2022-07-23T14:43:46;6.78;;;6.28;;
70205;SDS011;57593;55.896;37.396;2022-07-23T14:46:12;8.07;;;7.28;;
70205;SDS011;57593;55.896;37.396;2022-07-23T14:48:38;7.15;;;6.65;;
70205;SDS011;57593;55.896;37.396;2022-07-23T14:51:04;8.25;;;7.07;;
70205;SDS011;57593;55.896;37.396;2022-07-23T14:53:30;7.05;;;6.45;;
70205;SDS011;57593;55.896;37.396;2022-07-23T14:55:56;7.93;;;7.22;;
70205;SDS011;57593;55.896;37.396;2022-07-23T14:58:24;7.15;;;6.57;;
70205;SDS011;57593;55.896;37.396;2022-07-23T15:00:50;9.13;;;8.25;;
70205;SDS011;57593;55.896;37.396;2022-07-23T15:03:16;8.00;;;7.30;;
70205;SDS011;57593;55.896;37.396;2022-07-23T15:05:42;8.65;;;7.93;;
70205;SDS011;57593;55.896;37.396;2022-07-23T15:08:08;8.20;;;7.60;;
70205;SDS011;57593;55.896;37.396;2022-07-23T15:10:35;8.95;;;8.25;;
70205;SDS011;57593;55.896;37.396;2022-07-23T15:13:01;8.65;;;7.95;;
70205;SDS011;57593;55.896;37.396;2022-07-23T15:15:26;6.82;;;6.22;;
70205;SDS011;57593;55.896;37.396;2022-07-23T15:17:52;6.00;;;5.50;;
70205;SDS011;57593;55.896;37.396;2022-07-23T15:20:18;8.75;;;8.05;;
70205;SDS011;57593;55.896;37.396;2022-07-23T15:22:44;8.68;;;8.02;;